Time;durP1;ratioP1;P1;durP2;ratioP2;P2;SDS_P1;SDS_P2;PMS_P1;PMS_P2;Temp;Humidity;BMP_temperature;BMP_pressure;BME280_temperature;BME280_humidity;BME280_pressure;Samples;Min_cycle;Max_cycle;Signal;HPM_P1;HPM_P2
2022/06/19 04:22:39;;;;;;;19.60;6.20;;;;;;;18.65;83.66;99501.22;5111606;27;20403;-78
2022/06/19 04:25:07;;;;;;;15.70;6.70;;;;;;;18.71;83.47;99491.34;5109642;28;20035;-76
2022/06/19 04:27:33;;;;;;;14.95;6.60;;;;;;;18.79;83.61;99495.53;5110494;28;20496;-78
2022/06/19 04:29:58;;;;;;;11.13;5.90;;;;;;;18.89;83.55;99492.97;5112007;28;20039;-77
2022/06/19 04:32:24;;;;;;;15.10;6.85;;;;;;;18.92;83.03;99489.81;5111112;28;20073;-77
2022/06/19 04:34:49;;;;;;;10.57;5.43;;;;;;;18.91;83.28;99485.47;5118270;22;20036;-79
2022/06/19 04:37:15;;;;;;;10.98;5.50;;;;;;;18.89;83.75;99482.19;5077574;28;20044;-79
2022/06/19 04:39:40;;;;;;;9.15;4.95;;;;;;;18.93;83.53;99477.94;5061200;28;20130;-79
2022/06/19 04:42:07;;;;;;;18.23;6.22;;;;;;;19.07;83.38;99498.13;5060849;28;20020;-79
2022/06/19 04:44:33;;;;;;;19.05;5.95;;;;;;;18.93;82.10;99476.06;5103015;28;20039;-79
2022/06/19 04:46:59;;;;;;;16.73;5.47;;;;;;;18.84;81.26;99452.41;5115659;28;20058;-79
2022/06/19 04:49:24;;;;;;;10.80;5.70;;;;;;;19.21;81.84;99507.50;5098512;28;20040;-78
2022/06/19 04:51:50;;;;;;;12.00;5.70;;;;;;;19.27;81.83;99499.50;5119516;28;20036;-79
2022/06/19 04:54:15;;;;;;;11.45;5.05;;;;;;;19.27;81.88;99494.09;5115948;28;20044;-79
2022/06/19 04:56:42;;;;;;;12.60;5.03;;;;;;;19.36;81.02;99504.22;5098882;28;20527;-79
2022/06/19 04:59:07;;;;;;;13.23;5.47;;;;;;;19.47;80.79;99506.00;5133183;28;20035;-79
2022/06/19 05:01:36;;;;;;;13.68;5.35;;;;;;;19.45;79.26;99472.22;5116222;28;20019;-78
2022/06/19 05:04:05;;;;;;;13.10;6.07;;;;;;;19.69;79.76;99506.06;5116650;28;20032;-79
2022/06/19 05:06:31;;;;;;;10.73;5.20;;;;;;;19.67;78.86;99485.75;5117159;28;20038;-79
2022/06/19 05:08:58;;;;;;;14.25;5.22;;;;;;;19.87;79.59;99490.59;5115773;28;20114;-80
2022/06/19 05:11:27;;;;;;;15.32;5.55;;;;;;;19.91;79.21;99479.03;5098798;28;20543;-79
2022/06/19 05:13:53;;;;;;;16.55;5.13;;;;;;;19.98;77.25;99478.84;5116286;28;20397;-79
2022/06/19 05:16:21;;;;;;;13.43;5.07;;;;;;;20.01;76.90;99471.03;5115242;28;20477;-79
2022/06/19 05:18:48;;;;;;;12.20;5.53;;;;;;;20.36;75.33;99496.00;5115746;28;20035;-78
2022/06/19 05:21:14;;;;;;;16.85;5.18;;;;;;;20.33;75.19;99483.78;5117088;28;20049;-79
2022/06/19 05:23:44;;;;;;;12.27;4.93;;;;;;;20.55;75.51;99497.31;5114654;28;20067;-79
2022/06/19 05:26:27;;;;;;;10.30;4.40;;;;;;;20.64;75.49;99501.16;5116021;28;20042;-79
2022/06/19 05:28:54;;;;;;;12.82;5.35;;;;;;;20.69;74.57;99482.28;5115946;28;20032;-79
2022/06/19 05:31:20;;;;;;;11.70;5.68;;;;;;;20.82;75.00;99492.66;5113506;28;20400;-76
2022/06/19 05:33:45;;;;;;;11.80;4.47;;;;;;;20.98;74.11;99485.47;5100038;28;20040;-76
2022/06/19 05:36:11;;;;;;;14.50;5.15;;;;;;;21.12;73.33;99483.94;5094593;28;20047;-76
2022/06/19 05:38:37;;;;;;;10.50;5.10;;;;;;;21.21;73.18;99489.69;5093330;28;20036;-76
2022/06/19 05:41:03;;;;;;;17.88;5.53;;;;;;;21.29;73.47;99489.22;5098202;28;20036;-78
2022/06/19 05:43:31;;;;;;;10.50;5.22;;;;;;;21.42;75.23;99490.66;5099734;28;20065;-78
2022/06/19 05:45:59;;;;;;;12.48;5.05;;;;;;;21.53;74.98;99483.41;5095422;28;20084;-80
2022/06/19 05:48:26;;;;;;;10.95;5.05;;;;;;;21.65;74.57;99503.81;5096398;28;20516;-77
2022/06/19 05:51:05;;;;;;;19.02;6.57;;;;;;;21.78;74.76;99498.94;5097144;28;20438;-79
2022/06/19 05:53:33;;;;;;;17.65;5.72;;;;;;;21.91;74.01;99499.31;5099683;28;20059;-79
2022/06/19 05:55:59;;;;;;;13.70;5.65;;;;;;;22.12;72.49;99492.06;5098517;28;20152;-79
2022/06/19 05:58:25;;;;;;;14.77;5.30;;;;;;;22.34;69.42;99504.59;5097594;28;20112;-77
2022/06/19 06:00:50;;;;;;;13.95;5.43;;;;;;;22.66;66.83;99498.94;5096454;28;20055;-78
2022/06/19 06:03:18;;;;;;;16.67;5.40;;;;;;;22.79;66.80;99503.84;5098867;28;20500;-79
2022/06/19 06:05:44;;;;;;;15.43;5.70;;;;;;;22.81;66.20;99509.78;5076103;28;20398;-77
2022/06/19 06:08:12;;;;;;;18.40;5.95;;;;;;;22.85;65.43;99516.31;5092317;28;20039;-77
2022/06/19 06:10:37;;;;;;;12.63;5.35;;;;;;;22.94;65.15;99520.16;5093704;28;20024;-76
2022/06/19 06:13:03;;;;;;;14.90;4.82;;;;;;;23.05;65.04;99525.59;5091912;28;20044;-76
2022/06/19 06:15:28;;;;;;;21.17;5.10;;;;;;;23.07;65.32;99523.41;5093313;28;20032;-77
2022/06/19 06:17:54;;;;;;;16.45;5.43;;;;;;;23.13;64.58;99519.59;5093611;28;20488;-77
2022/06/19 06:20:19;;;;;;;19.10;5.47;;;;;;;23.28;62.68;99533.19;5092178;28;20147;-77
2022/06/19 06:22:48;;;;;;;17.85;5.47;;;;;;;23.40;62.57;99536.41;5093880;28;20028;-79
2022/06/19 06:25:13;;;;;;;16.27;5.70;;;;;;;23.53;62.41;99527.66;5095937;28;20130;-79
2022/06/19 06:27:39;;;;;;;17.83;5.30;;;;;;;23.73;61.38;99520.56;5094654;28;20445;-78
2022/06/19 06:30:05;;;;;;;16.85;5.53;;;;;;;23.86;59.80;99509.09;5094967;28;20119;-79
2022/06/19 06:32:31;;;;;;;15.27;4.72;;;;;;;24.08;59.31;99511.47;5094020;28;20032;-78
2022/06/19 06:34:56;;;;;;;20.48;5.88;;;;;;;24.28;58.87;99516.00;5092161;28;20528;-77
2022/06/19 06:37:21;;;;;;;13.10;5.32;;;;;;;24.47;57.31;99510.75;5093554;28;20036;-77
2022/06/19 06:39:48;;;;;;;17.58;5.13;;;;;;;24.84;54.92;99508.28;5092017;28;20496;-77
2022/06/19 06:42:14;;;;;;;22.60;5.53;;;;;;;25.13;54.45;99504.78;5092547;28;20484;-79
2022/06/19 06:44:40;;;;;;;19.02;5.28;;;;;;;25.50;53.11;99503.34;5091023;28;20039;-76
2022/06/19 06:47:06;;;;;;;17.20;5.80;;;;;;;25.80;51.48;99502.19;5091534;28;20035;-75
2022/06/19 06:49:31;;;;;;;16.17;4.78;;;;;;;25.96;51.25;99496.25;5093039;28;20047;-75
2022/06/19 06:51:57;;;;;;;20.08;5.10;;;;;;;26.20;50.00;99496.19;5092080;28;20036;-76
2022/06/19 06:54:22;;;;;;;13.82;5.32;;;;;;;26.31;50.25;99499.59;5092881;28;20047;-75
2022/06/19 06:56:48;;;;;;;14.18;5.22;;;;;;;26.53;48.54;99490.81;5092591;28;20032;-74
2022/06/19 06:59:14;;;;;;;14.13;4.50;;;;;;;26.84;47.02;99504.00;5092899;28;20040;-75
2022/06/19 07:01:40;;;;;;;18.50;5.13;;;;;;;27.13;45.87;99512.81;5091154;28;20408;-76
2022/06/19 07:04:06;;;;;;;18.23;5.85;;;;;;;27.48;44.85;99514.06;5092227;28;20043;-75
2022/06/19 07:06:32;;;;;;;16.55;5.30;;;;;;;27.68;44.82;99510.16;5092603;28;20028;-76
2022/06/19 07:08:58;;;;;;;16.25;5.28;;;;;;;27.92;44.11;99515.44;5091994;28;20123;-74
2022/06/19 07:11:26;;;;;;;19.17;5.17;;;;;;;28.10;43.81;99519.97;5092487;28;20496;-74
2022/06/19 07:13:53;;;;;;;16.63;5.63;;;;;;;28.35;43.78;99513.13;5091487;28;20292;-76
2022/06/19 07:16:18;;;;;;;18.57;6.60;;;;;;;28.47;42.97;99507.13;5075197;28;20048;-76
2022/06/19 07:18:44;;;;;;;14.18;5.88;;;;;;;28.67;42.50;99508.56;5074700;28;20097;-74
2022/06/19 07:21:13;;;;;;;13.32;5.95;;;;;;;29.03;41.48;99515.94;5091359;28;20038;-75
2022/06/19 07:23:39;;;;;;;15.65;5.22;;;;;;;29.15;41.40;99511.50;5092407;28;20097;-74
2022/06/19 07:26:13;;;;;;;10.20;5.38;;;;;;;29.08;42.06;99507.56;5091139;28;20677;-75
2022/06/19 07:28:40;;;;;;;13.32;6.45;;;;;;;29.28;41.59;99504.31;5091199;28;20044;-74
2022/06/19 07:31:06;;;;;;;16.73;6.45;;;;;;;29.39;41.77;99496.59;5092609;28;20024;-74
2022/06/19 07:33:36;;;;;;;10.65;5.97;;;;;;;29.69;41.41;99495.00;5092199;28;20048;-75
2022/06/19 07:36:02;;;;;;;15.93;5.75;;;;;;;29.72;41.14;99488.84;5092291;28;20036;-76
2022/06/19 07:38:27;;;;;;;13.25;5.90;;;;;;;29.95;40.80;99490.38;5092265;28;20108;-76
2022/06/19 07:40:53;;;;;;;16.50;6.75;;;;;;;30.07;41.13;99489.75;5091619;28;20040;-75
2022/06/19 07:43:18;;;;;;;19.45;6.18;;;;;;;30.27;39.64;99491.09;5091733;28;20040;-74
2022/06/19 07:45:44;;;;;;;14.77;6.88;;;;;;;30.37;40.07;99496.25;5092082;28;20127;-75
2022/06/19 07:50:55;;;;;;;13.48;6.40;;;;;;;30.62;39.77;99493.84;5090753;28;20035;-75
2022/06/19 07:53:20;;;;;;;13.95;6.97;;;;;;;30.69;39.26;99491.44;5090557;28;20044;-76
2022/06/19 07:55:45;;;;;;;17.48;7.10;;;;;;;30.88;38.63;99489.13;5092115;28;20472;-76
2022/06/19 07:58:11;;;;;;;9.98;6.88;;;;;;;30.91;38.25;99495.91;5091806;28;20118;-76
2022/06/19 08:00:38;;;;;;;14.35;7.00;;;;;;;31.11;37.17;99483.44;5091837;28;20117;-77
2022/06/19 08:03:04;;;;;;;12.02;6.90;;;;;;;31.22;37.01;99479.19;5090313;28;20028;-76
2022/06/19 08:05:31;;;;;;;11.50;6.70;;;;;;;31.26;36.57;99480.97;5092106;28;20031;-75
2022/06/19 08:07:58;;;;;;;13.27;7.22;;;;;;;31.36;36.59;99484.50;5091750;28;20042;-75
2022/06/19 08:10:43;;;;;;;;;;;;;;;31.36;37.46;99477.03;5090949;28;20478;-75
2022/06/19 08:13:10;;;;;;;11.90;7.25;;;;;;;31.36;36.57;99481.75;5091475;28;20018;-75
2022/06/19 08:15:36;;;;;;;10.87;6.67;;;;;;;31.58;36.69;99489.75;5090462;28;20105;-75
2022/06/19 08:18:02;;;;;;;14.07;7.20;;;;;;;31.69;35.19;99482.75;5090357;28;20286;-76
2022/06/19 08:20:28;;;;;;;9.52;6.45;;;;;;;31.86;34.80;99470.84;5092151;28;20446;-74
2022/06/19 08:22:54;;;;;;;14.05;7.68;;;;;;;31.87;35.60;99475.19;5089968;28;20036;-75
2022/06/19 08:25:22;;;;;;;14.05;6.45;;;;;;;31.98;33.95;99475.63;5091677;28;20039;-75
2022/06/19 08:27:49;;;;;;;12.43;6.38;;;;;;;32.03;33.37;99483.69;5091479;28;20036;-75
2022/06/19 08:30:34;;;;;;;;;;;;;;;32.02;33.28;99479.34;5090918;28;20048;-74
2022/06/19 08:33:00;;;;;;;9.77;6.43;;;;;;;32.22;33.18;99480.50;5091328;28;20002;-75
2022/06/19 08:35:29;;;;;;;12.47;7.57;;;;;;;32.34;34.50;99467.63;5091359;28;20159;-75
2022/06/19 08:38:00;;;;;;;10.63;6.05;;;;;;;32.29;32.73;99475.25;5090300;28;20040;-75
2022/06/19 08:40:49;;;;;;;9.68;6.30;;;;;;;32.48;33.06;99474.81;5090526;28;20040;-76
2022/06/19 08:43:37;;;;;;;12.20;5.47;;;;;;;32.62;32.88;99476.13;5090718;28;20097;-75
2022/06/19 08:46:20;;;;;;;8.88;6.30;;;;;;;32.51;31.57;99488.69;5091634;28;20024;-77
2022/06/19 08:48:54;;;;;;;8.07;5.53;;;;;;;32.65;31.02;99469.91;5091762;28;20036;-76
2022/06/19 08:51:43;;;;;;;7.35;5.65;;;;;;;32.66;31.91;99468.75;5090021;28;20028;-76
2022/06/19 08:54:36;;;;;;;8.05;5.60;;;;;;;32.84;31.75;99471.34;5082884;28;20409;-75
2022/06/19 08:57:27;;;;;;;8.57;5.35;;;;;;;33.02;31.27;99470.06;5076352;28;20039;-76
2022/06/19 09:00:18;;;;;;;12.15;5.30;;;;;;;33.33;30.99;99477.81;5071128;28;20036;-75
2022/06/19 09:02:57;;;;;;;11.40;5.85;;;;;;;33.59;30.47;99485.78;5070589;28;20504;-76
2022/06/19 09:05:46;;;;;;;9.43;5.70;;;;;;;33.45;30.81;99477.03;5069957;28;20102;-75
2022/06/19 09:08:29;;;;;;;8.07;5.03;;;;;;;33.66;29.65;99468.66;5071445;28;20124;-75
2022/06/19 09:11:26;;;;;;;8.82;5.18;;;;;;;33.68;29.32;99477.38;5074785;28;20404;-76
2022/06/19 09:14:28;;;;;;;6.88;5.50;;;;;;;33.78;29.85;99465.06;5056488;28;20059;-75
2022/06/19 09:17:15;;;;;;;9.82;5.35;;;;;;;33.93;30.11;99467.16;5074703;28;20531;-76
2022/06/19 09:20:06;;;;;;;12.48;5.15;;;;;;;33.71;28.51;99465.63;5056285;28;20513;-75
2022/06/19 09:22:39;;;;;;;8.57;5.47;;;;;;;33.93;28.18;99470.72;5074431;28;20115;-77
2022/06/19 09:25:23;;;;;;;8.55;5.72;;;;;;;34.19;30.27;99470.31;5074528;28;20036;-75
2022/06/19 09:28:09;;;;;;;8.82;5.50;;;;;;;34.42;28.86;99478.91;5074561;28;20052;-77
2022/06/19 09:30:46;;;;;;;10.45;5.20;;;;;;;34.20;27.97;99476.66;5074093;28;20052;-77
2022/06/19 09:33:30;;;;;;;8.55;4.70;;;;;;;34.25;27.18;99474.44;5090535;28;20071;-75
2022/06/19 09:36:07;;;;;;;8.30;5.45;;;;;;;34.33;27.62;99480.19;5094793;28;20031;-78
2022/06/19 09:38:43;;;;;;;12.10;5.07;;;;;;;34.49;27.63;99483.81;5094637;28;20120;-75
2022/06/19 09:41:19;;;;;;;7.10;4.60;;;;;;;34.50;27.81;99491.78;5094133;28;20497;-76
2022/06/19 09:43:56;;;;;;;6.90;4.15;;;;;;;34.80;26.25;99478.38;5094680;28;20036;-77
2022/06/19 09:46:33;;;;;;;7.00;4.70;;;;;;;34.93;27.14;99497.72;5095047;28;20084;-74
2022/06/19 09:49:17;;;;;;;9.02;4.65;;;;;;;34.89;27.75;99494.03;5093544;28;20046;-77
2022/06/19 09:52:25;;;;;;;14.05;5.13;;;;;;;34.97;27.90;99499.44;5094253;28;20148;-74
2022/06/19 09:55:03;;;;;;;10.70;5.00;;;;;;;35.11;27.50;99485.16;5092472;28;20468;-77
2022/06/19 09:57:36;;;;;;;8.38;4.95;;;;;;;35.39;27.12;99484.28;5095252;28;20048;-77
2022/06/19 10:00:04;;;;;;;8.15;4.90;;;;;;;35.56;26.42;99508.88;5093435;28;20043;-75
2022/06/19 10:03:05;;;;;;;7.65;5.00;;;;;;;35.29;26.02;99491.97;5094075;28;20036;-76
2022/06/19 10:05:42;;;;;;;11.65;5.25;;;;;;;35.30;25.87;99479.75;5094710;28;20051;-75
2022/06/19 10:08:20;;;;;;;9.63;4.70;;;;;;;35.58;27.36;99478.84;5092844;28;20043;-76
2022/06/19 10:11:04;;;;;;;7.03;5.35;;;;;;;35.55;25.62;99482.34;5093968;28;20491;-76
2022/06/19 10:13:38;;;;;;;8.95;4.90;;;;;;;35.21;25.03;99479.13;5093666;28;20044;-76
2022/06/19 10:16:18;;;;;;;11.27;5.18;;;;;;;35.43;26.85;99474.94;5093062;28;20377;-77
2022/06/19 10:18:49;;;;;;;8.43;5.13;;;;;;;35.58;26.80;99465.00;5093718;28;20223;-75
2022/06/19 10:24:38;;;;;;;10.77;5.55;;;;;;;36.17;25.91;99469.53;5093685;28;20036;-76
2022/06/19 10:27:35;;;;;;;10.30;5.22;;;;;;;36.55;26.35;99465.19;5051619;28;20052;-77
2022/06/19 10:30:14;;;;;;;9.82;5.60;;;;;;;36.80;26.96;99455.38;5075847;28;20062;-76
2022/06/19 10:32:58;;;;;;;11.77;5.22;;;;;;;37.04;25.74;99465.38;5093508;28;20034;-77
2022/06/19 10:35:42;;;;;;;8.15;5.30;;;;;;;37.19;25.98;99456.13;5078564;22;20045;-81
2022/06/19 10:38:26;;;;;;;8.40;5.28;;;;;;;37.55;25.19;99462.25;5056576;28;20033;-79
2022/06/19 10:41:01;;;;;;;13.60;5.40;;;;;;;37.58;24.03;99466.28;5056508;28;20044;-79
2022/06/19 10:43:52;;;;;;;7.53;5.30;;;;;;;37.83;24.87;99459.16;5055496;28;20035;-80
2022/06/19 10:46:17;;;;;;;7.82;4.95;;;;;;;37.98;26.61;99468.50;5035868;28;20025;-78
2022/06/19 10:48:49;;;;;;;9.33;5.77;;;;;;;37.94;25.19;99467.63;5036898;28;20041;-79
2022/06/19 10:51:28;;;;;;;8.18;4.65;;;;;;;38.45;24.97;99470.72;5035208;28;20155;-78
2022/06/19 10:54:15;;;;;;;9.70;5.03;;;;;;;38.51;24.72;99463.63;5034799;28;20113;-76
2022/06/19 10:56:56;;;;;;;9.77;5.13;;;;;;;38.67;25.79;99470.94;5036020;28;20057;-78
2022/06/19 10:59:23;;;;;;;6.88;4.78;;;;;;;38.68;24.38;99469.78;5037542;28;20113;-78
2022/06/19 11:05:01;;;;;;;11.20;5.00;;;;;;;38.71;25.99;99471.81;5036264;28;20084;-79
2022/06/19 11:07:28;;;;;;;12.15;4.88;;;;;;;39.03;24.32;99467.38;5035662;28;20390;-80
2022/06/19 11:09:59;;;;;;;9.43;5.15;;;;;;;39.09;24.03;99471.41;5036789;28;20441;-79
2022/06/19 11:12:37;;;;;;;10.18;4.97;;;;;;;38.84;24.35;99459.25;5035781;28;20044;-80
2022/06/19 11:15:09;;;;;;;9.23;5.03;;;;;;;39.06;23.01;99463.84;5019113;28;20049;-79
2022/06/19 11:17:41;;;;;;;9.65;4.93;;;;;;;39.17;24.48;99466.75;5036338;28;20045;-79
2022/06/19 11:20:23;;;;;;;10.98;4.65;;;;;;;39.00;24.16;99457.03;5035488;28;20034;-80
2022/06/19 11:22:51;;;;;;;8.40;4.60;;;;;;;38.73;23.97;99458.31;5018086;28;20038;-80
2022/06/19 11:25:19;;;;;;;12.05;5.43;;;;;;;39.29;25.72;99458.09;5017835;28;20037;-77
2022/06/19 11:27:54;;;;;;;9.48;4.95;;;;;;;39.42;23.97;99455.00;5034985;28;20067;-79
2022/06/19 11:30:37;;;;;;;9.68;5.28;;;;;;;39.77;22.27;99444.13;5036107;28;20064;-79
2022/06/19 11:33:09;;;;;;;8.82;5.25;;;;;;;39.27;25.34;99437.41;5002483;28;20052;-79
2022/06/19 11:35:41;;;;;;;11.63;5.78;;;;;;;39.46;24.52;99439.13;5018698;28;20105;-80
2022/06/19 11:38:07;;;;;;;13.18;5.43;;;;;;;39.57;23.52;99443.56;5038339;28;20045;-78
2022/06/19 11:40:36;;;;;;;11.73;5.45;;;;;;;39.97;22.72;99435.47;5018715;28;20073;-78
2022/06/19 11:43:04;;;;;;;11.27;5.28;;;;;;;40.10;22.21;99442.34;5036500;28;20084;-81
2022/06/19 11:45:37;;;;;;;8.93;5.05;;;;;;;39.97;23.13;99438.25;5032969;28;20108;-76
2022/06/19 11:48:13;;;;;;;14.32;5.63;;;;;;;40.74;22.31;99441.78;5032422;28;20075;-77
2022/06/19 11:50:51;;;;;;;9.18;4.70;;;;;;;40.38;21.99;99438.88;5032199;28;20041;-76
2022/06/19 11:53:26;;;;;;;9.02;4.82;;;;;;;40.70;21.70;99429.84;5032223;28;20041;-76
2022/06/19 11:56:23;;;;;;;7.97;5.13;;;;;;;40.64;22.56;99435.00;5032325;28;20041;-77
2022/06/19 11:58:57;;;;;;;12.63;5.57;;;;;;;40.98;22.68;99432.69;5032272;28;20395;-76
2022/06/19 12:01:35;;;;;;;8.55;5.68;;;;;;;40.29;21.50;99424.50;5031714;28;20044;-76
2022/06/19 12:04:05;;;;;;;10.40;5.43;;;;;;;40.13;22.35;99428.44;5031561;28;20474;-76
2022/06/19 12:06:50;;;;;;;9.20;5.50;;;;;;;40.79;22.71;99416.28;5031871;28;20045;-76
2022/06/19 12:09:27;;;;;;;10.60;5.20;;;;;;;40.45;22.29;99413.78;5031572;28;20044;-76
2022/06/19 12:12:04;;;;;;;7.88;5.18;;;;;;;40.81;22.36;99411.09;5031321;28;20064;-76
2022/06/19 12:14:34;;;;;;;11.38;4.68;;;;;;;40.99;22.17;99416.72;5031445;28;20075;-76
2022/06/19 12:17:24;;;;;;;11.13;5.45;;;;;;;40.38;22.09;99428.53;5031723;28;20032;-76
2022/06/19 12:20:00;;;;;;;13.50;5.30;;;;;;;39.96;21.08;99423.53;5031831;28;20037;-76
2022/06/19 12:22:37;;;;;;;12.40;4.80;;;;;;;39.71;19.79;99414.22;5031517;28;20037;-77
2022/06/19 12:25:28;;;;;;;11.20;4.88;;;;;;;39.72;20.91;99413.06;5031571;28;20124;-75
2022/06/19 12:27:57;;;;;;;8.18;4.30;;;;;;;40.46;22.26;99417.38;5031774;28;20033;-76
2022/06/19 12:30:34;;;;;;;9.68;5.20;;;;;;;40.29;21.05;99400.19;5033022;28;20402;-78
2022/06/19 12:33:04;;;;;;;7.35;5.40;;;;;;;40.22;21.50;99419.69;5031788;28;20080;-76
2022/06/19 12:35:34;;;;;;;11.88;5.15;;;;;;;40.33;21.87;99414.16;5030851;28;20417;-76
2022/06/19 12:38:03;;;;;;;11.77;5.00;;;;;;;40.71;22.30;99407.09;5032416;28;20045;-75
2022/06/19 12:40:46;;;;;;;7.80;5.85;;;;;;;40.89;21.99;99407.13;5032905;28;20041;-77
2022/06/19 12:43:22;;;;;;;7.13;4.95;;;;;;;41.32;20.97;99394.00;5015248;28;20040;-76
2022/06/19 12:45:58;;;;;;;10.32;4.95;;;;;;;41.12;20.51;99390.00;5035527;28;20394;-76
2022/06/19 12:48:44;;;;;;;6.10;4.45;;;;;;;41.29;20.04;99388.41;5036451;28;20037;-78
2022/06/19 12:51:35;;;;;;;8.10;4.80;;;;;;;40.94;19.00;99396.38;5035567;28;20036;-77
2022/06/19 12:54:07;;;;;;;11.30;4.90;;;;;;;41.53;19.52;99381.97;5017922;28;20124;-76
2022/06/19 12:56:42;;;;;;;7.18;4.60;;;;;;;40.92;20.27;99384.03;5035362;28;20033;-76
2022/06/19 12:59:16;;;;;;;13.65;4.78;;;;;;;41.03;20.56;99378.44;5035685;28;20033;-77
2022/06/19 13:01:52;;;;;;;9.68;5.10;;;;;;;41.61;20.07;99368.81;5035202;28;20029;-76
2022/06/19 13:04:23;;;;;;;;;;;;;;;40.76;19.68;99370.44;5018233;28;20091;-77
2022/06/19 13:07:12;;;;;;;9.02;4.70;;;;;;;41.06;20.66;99361.69;5035961;28;19913;-77
2022/06/19 13:10:09;;;;;;;8.30;5.13;;;;;;;41.12;21.53;99356.50;5035716;28;20375;-77
2022/06/19 13:12:50;;;;;;;14.82;5.22;;;;;;;40.62;20.24;99362.03;5017253;28;20542;-76
2022/06/19 13:15:39;;;;;;;11.38;4.95;;;;;;;39.94;20.78;99359.00;5034983;28;20456;-77
2022/06/19 13:18:16;;;;;;;9.88;4.93;;;;;;;39.57;21.67;99348.06;5017822;28;20033;-77
2022/06/19 13:20:49;;;;;;;13.90;6.38;;;;;;;39.41;20.55;99339.22;5035405;28;20045;-79
2022/06/19 13:23:22;;;;;;;7.47;4.88;;;;;;;39.24;21.90;99343.47;5020069;28;20549;-78
2022/06/19 13:26:08;;;;;;;12.57;5.15;;;;;;;38.69;20.99;99323.94;5040836;28;20034;-79
2022/06/19 13:28:47;;;;;;;10.23;5.03;;;;;;;37.96;20.79;99324.34;5041807;28;20087;-78
2022/06/19 13:31:33;;;;;;;9.18;4.68;;;;;;;37.73;21.37;99315.31;5019969;28;20490;-78
2022/06/19 13:34:22;;;;;;;8.73;5.05;;;;;;;37.70;21.05;99330.75;5037006;28;20041;-79
2022/06/19 13:37:02;;;;;;;7.88;4.70;;;;;;;37.55;21.33;99311.50;5037826;28;20398;-78
2022/06/19 13:39:46;;;;;;;11.20;5.20;;;;;;;37.41;22.40;99318.44;5036981;28;20118;-78
2022/06/19 13:42:31;;;;;;;12.00;5.85;;;;;;;37.44;21.97;99308.59;5019453;28;20434;-78
2022/06/19 13:45:03;;;;;;;10.43;4.80;;;;;;;37.28;21.63;99307.91;5036094;28;20033;-78
2022/06/19 13:47:40;;;;;;;7.45;4.55;;;;;;;37.33;23.12;99313.97;5036732;28;20162;-78
2022/06/19 13:50:19;;;;;;;10.20;4.82;;;;;;;37.09;21.58;99303.28;5039945;28;20069;-80
2022/06/19 13:53:10;;;;;;;7.10;4.35;;;;;;;37.19;22.81;99305.41;5036413;28;20034;-80
2022/06/19 13:55:58;;;;;;;8.35;4.30;;;;;;;36.98;22.92;99302.34;5038272;28;20045;-80
2022/06/19 13:58:42;;;;;;;10.20;4.75;;;;;;;36.63;22.05;99301.34;5037095;28;20060;-77
2022/06/19 14:01:32;;;;;;;7.90;4.90;;;;;;;36.77;22.45;99302.75;5034903;28;20037;-78
2022/06/19 14:07:26;;;;;;;8.73;4.60;;;;;;;36.72;23.64;99286.44;5035345;28;20037;-77
2022/06/19 14:10:09;;;;;;;10.57;4.95;;;;;;;36.63;21.63;99297.75;5016888;28;20045;-79
2022/06/19 14:12:46;;;;;;;11.73;4.60;;;;;;;36.62;21.82;99294.19;5034637;28;20244;-77
2022/06/19 14:15:26;;;;;;;5.95;4.25;;;;;;;36.78;22.36;99299.63;5034399;28;20041;-77
2022/06/19 14:18:21;;;;;;;12.05;4.65;;;;;;;36.69;21.67;99294.31;5035855;28;20045;-78
2022/06/19 14:21:05;;;;;;;9.65;4.50;;;;;;;36.63;21.55;99289.44;5035400;28;20080;-79
2022/06/19 14:23:49;;;;;;;12.10;4.88;;;;;;;36.59;21.85;99288.59;5035155;28;20037;-78
2022/06/19 14:26:21;;;;;;;11.55;4.75;;;;;;;36.46;21.44;99284.41;5035660;28;20045;-79
2022/06/19 14:29:20;;;;;;;7.15;4.40;;;;;;;36.46;21.96;99273.31;5034910;28;20069;-78
2022/06/19 14:31:47;;;;;;;8.77;5.10;;;;;;;36.42;22.45;99276.81;5036460;28;20042;-77
2022/06/19 14:34:47;;;;;;;9.73;4.60;;;;;;;36.33;21.89;99273.47;5034158;28;20048;-77
2022/06/19 14:37:43;;;;;;;7.13;5.28;;;;;;;36.40;21.88;99268.06;5016593;28;20041;-78
2022/06/19 14:40:18;;;;;;;;;;;;;;;36.33;22.18;99272.66;5035486;28;20085;-78
2022/06/19 14:43:03;;;;;;;13.07;4.78;;;;;;;36.37;21.84;99271.53;5050026;28;19967;-81
2022/06/19 14:45:52;;;;;;;10.73;4.40;;;;;;;36.38;22.55;99272.34;5036158;28;20099;-78
2022/06/19 14:48:44;;;;;;;9.63;4.55;;;;;;;36.49;22.29;99261.47;5036093;28;20037;-79
2022/06/19 14:51:18;;;;;;;9.05;4.57;;;;;;;36.55;23.25;99262.78;5018153;28;20038;-79
2022/06/19 14:54:31;;;;;;;11.05;4.35;;;;;;;36.57;23.37;99255.66;5034088;28;20092;-77
2022/06/19 14:57:22;;;;;;;6.80;4.65;;;;;;;36.54;22.49;99248.09;5033519;28;20044;-78
2022/06/19 15:00:03;;;;;;;12.98;5.40;;;;;;;36.56;23.31;99256.84;5033881;28;20037;-78
2022/06/19 15:02:54;;;;;;;6.93;4.18;;;;;;;36.46;22.34;99249.16;5035044;28;20493;-79
2022/06/19 15:05:49;;;;;;;9.15;4.90;;;;;;;36.54;22.43;99253.66;5034219;28;20037;-77
2022/06/19 15:08:25;;;;;;;12.10;4.57;;;;;;;36.50;21.72;99246.44;5033274;28;20128;-78
2022/06/19 15:10:55;;;;;;;8.52;4.72;;;;;;;36.40;21.83;99237.59;5032699;28;20037;-76
2022/06/19 15:13:30;;;;;;;7.80;4.63;;;;;;;36.40;23.11;99234.00;5032415;28;20114;-78
2022/06/19 15:16:10;;;;;;;9.80;4.82;;;;;;;36.39;23.29;99235.97;5032965;28;20529;-77
2022/06/19 15:18:36;;;;;;;9.35;4.43;;;;;;;36.45;23.99;99241.19;5034027;28;20041;-78
2022/06/19 15:21:13;;;;;;;11.82;4.28;;;;;;;36.30;23.69;99238.16;5034404;28;20325;-78
2022/06/19 15:23:43;;;;;;;9.52;5.25;;;;;;;36.42;24.13;99223.34;5033114;28;20501;-77
2022/06/19 15:26:15;;;;;;;13.57;5.78;;;;;;;36.32;23.51;99229.47;5035696;28;20037;-77
2022/06/19 15:28:44;;;;;;;11.07;4.72;;;;;;;36.34;23.61;99224.38;5034470;28;20367;-78
2022/06/19 15:31:18;;;;;;;7.80;4.60;;;;;;;36.31;22.92;99238.97;5034707;28;20145;-77
2022/06/19 15:34:01;;;;;;;9.50;4.55;;;;;;;36.29;23.32;99228.25;5034049;28;20040;-79
2022/06/19 15:36:34;;;;;;;8.93;4.60;;;;;;;36.29;23.53;99222.69;5033704;28;20029;-78
2022/06/19 15:39:08;;;;;;;9.93;4.47;;;;;;;36.28;23.04;99226.66;5032756;28;20034;-76
2022/06/19 15:41:37;;;;;;;7.93;4.60;;;;;;;36.28;23.61;99218.34;5032063;28;20026;-77
2022/06/19 15:44:17;;;;;;;8.57;4.30;;;;;;;36.27;22.82;99219.50;5031765;28;20033;-76
2022/06/19 15:47:05;;;;;;;8.05;4.07;;;;;;;36.28;21.36;99206.44;5032762;28;20544;-77
2022/06/19 15:49:55;;;;;;;11.00;4.55;;;;;;;36.33;22.39;99220.81;5016427;28;20136;-77
2022/06/19 15:52:44;;;;;;;8.05;4.60;;;;;;;36.28;22.27;99218.34;5017400;28;20140;-76
2022/06/19 15:55:18;;;;;;;10.07;4.95;;;;;;;36.27;23.13;99216.72;5016126;28;20167;-77
2022/06/19 15:57:51;;;;;;;11.68;4.75;;;;;;;36.22;22.04;99214.25;5034914;28;20065;-77
2022/06/19 16:00:31;;;;;;;9.23;4.65;;;;;;;36.14;22.33;99220.88;5038863;28;20505;-77
2022/06/19 16:03:04;;;;;;;8.77;4.80;;;;;;;35.99;22.33;99216.22;5015864;28;20061;-79
2022/06/19 16:05:33;;;;;;;9.48;4.32;;;;;;;35.91;22.49;99214.50;5014943;28;20402;-78
2022/06/19 16:08:00;;;;;;;11.50;4.72;;;;;;;35.95;22.46;99216.16;4997791;28;20541;-78
2022/06/19 16:10:33;;;;;;;9.13;4.32;;;;;;;35.99;22.69;99227.28;5032201;28;20091;-77
2022/06/19 16:13:16;;;;;;;11.55;4.35;;;;;;;35.98;22.53;99218.19;5032012;28;20044;-78
2022/06/19 16:15:45;;;;;;;9.32;4.80;;;;;;;35.98;23.04;99218.19;5034073;28;20037;-77
2022/06/19 16:18:27;;;;;;;6.28;3.83;;;;;;;35.89;22.41;99217.59;5037305;28;20061;-78
2022/06/19 16:21:05;;;;;;;11.98;4.82;;;;;;;35.86;23.01;99213.59;5036309;28;20034;-78
2022/06/19 16:23:45;;;;;;;11.52;4.60;;;;;;;35.88;23.49;99211.25;5036000;28;20037;-79
2022/06/19 16:26:29;;;;;;;7.38;4.50;;;;;;;35.84;24.04;99210.38;5036753;28;20049;-78
2022/06/19 16:28:58;;;;;;;9.25;4.50;;;;;;;35.83;23.45;99203.25;5030914;28;20065;-78
2022/06/19 16:31:27;;;;;;;9.95;4.78;;;;;;;35.79;23.09;99207.91;5031793;28;20121;-78
2022/06/19 16:33:59;;;;;;;11.02;4.55;;;;;;;35.76;22.34;99205.09;5031824;28;20041;-78
2022/06/19 16:44:50;;;;;;;12.07;4.78;;;;;;;35.67;23.75;99205.31;5018203;28;20371;-79
2022/06/19 16:47:18;;;;;;;12.67;4.73;;;;;;;35.70;24.14;99210.13;5036680;28;20053;-78